createdAt,value
2022-10-05T00:01:24.686Z,17.356589091033676
2022-10-05T00:04:19.516Z,17.355946763860356
2022-10-05T00:07:19.181Z,17.305845258352292
2022-10-05T00:11:16.655Z,17.255743780511057
2022-10-05T00:14:19.319Z,17.242897252187777
2022-10-05T00:17:20.536Z,17.206926982559615
2022-10-05T00:21:21.389Z,17.153613930592837
2022-10-05T00:24:19.403Z,17.09066603004794
2022-10-05T00:27:19.456Z,17.024506548997397
2022-10-05T00:31:18.861Z,17.030929797470254
2022-10-05T00:34:17.404Z,16.99752891037724
2022-10-05T00:37:17.638Z,17.008448429804776
2022-10-05T00:41:23.572Z,17.00459448162146
2022-10-05T00:44:31.351Z,16.971835928673045
2022-10-05T00:47:32.621Z,16.963485711185786
2022-10-05T00:51:24.165Z,16.965412684383864
2022-10-05T00:54:28.904Z,16.941004360232274
2022-10-05T00:57:29.359Z,16.926873228198474
2022-10-05T01:01:21.352Z,16.96733965762287
2022-10-05T01:04:25.774Z,16.949996899945198
2022-10-05T01:07:30.113Z,16.90824583024405
2022-10-05T01:11:24.937Z,16.899253294669325
2022-10-05T01:14:26.577Z,16.876129635855612
2022-10-05T01:17:25.112Z,16.86777942717681
2022-10-05T01:21:20.197Z,16.792627583651118
2022-10-05T01:24:33.786Z,16.75665749253858
2022-10-05T01:27:56.651Z,16.739314775133334
2022-10-05T01:31:24.760Z,16.71683347972721
2022-10-05T01:34:25.943Z,16.71426418917836
2022-10-05T01:37:26.371Z,16.702702382608912
2022-10-05T01:41:28.983Z,16.69370986740687
2022-10-05T01:44:25.082Z,16.646820338293857
2022-10-05T01:47:24.591Z,16.626908353809267
2022-10-05T01:51:21.829Z,16.61791584611965
2022-10-05T01:54:28.665Z,16.60121547706076
2022-10-05T01:57:29.355Z,16.577449572546264
2022-10-05T02:01:24.208Z,16.547260459572136
2022-10-05T02:04:56.508Z,16.48559762173245
2022-10-05T02:07:22.418Z,16.429073390529084
2022-10-05T02:11:16.148Z,16.379614717113963
2022-10-05T02:14:22.436Z,16.36869527337003
2022-10-05T02:17:21.069Z,16.297397761229604
2022-10-05T02:21:17.517Z,16.285193688191065
2022-10-05T02:24:21.826Z,16.278770492514376
2022-10-05T02:27:22.325Z,16.228669581843132
2022-10-05T02:31:21.346Z,16.211969284434236
2022-10-05T02:34:21.991Z,16.19783826595085
2022-10-05T02:37:27.702Z,16.188203481883193
2022-10-05T02:41:27.938Z,16.163153048095772
2022-10-05T02:44:28.310Z,16.123971614246784
2022-10-05T02:47:25.299Z,16.098278879925147
2022-10-05T02:51:23.355Z,16.026981580292706
2022-10-05T02:54:33.425Z,16.02055840289686
2022-10-05T02:57:26.092Z,16.019916085182285
2022-10-05T03:01:25.655Z,15.97880776090833
2022-10-05T03:04:28.380Z,15.995508015398173
2022-10-05T03:07:22.845Z,15.986515570290885
2022-10-05T03:11:25.189Z,15.99486569786095
2022-10-05T03:14:23.065Z,15.964034461422125
2022-10-05T03:17:19.069Z,15.971099952180612
2022-10-05T03:21:31.666Z,15.946049578337988
2022-10-05T03:24:40.826Z,15.906868238248808
2022-10-05T03:27:27.967Z,15.893379584100694
2022-10-05T03:31:24.860Z,15.896591168239775
2022-10-05T03:34:25.490Z,15.843921202715228
2022-10-05T03:37:22.598Z,15.807951487733316
2022-10-05T03:41:20.632Z,15.748858415507948
2022-10-05T03:44:29.335Z,15.689765381772395
2022-10-05T03:47:24.754Z,15.600483588592397
2022-10-05T03:51:24.058Z,15.619110718045794
2022-10-05T03:54:23.808Z,15.576075631649292
2022-10-05T03:57:20.996Z,15.554879253315539
2022-10-05T04:01:21.813Z,15.607549051038314
2022-10-05T04:04:23.198Z,15.574148687959768
2022-10-05T04:07:27.176Z,15.53689445134014
2022-10-05T04:11:20.928Z,15.543959908833859
2022-10-05T04:14:23.387Z,15.524690480601567
2022-10-05T04:17:30.866Z,15.54267528015771
2022-10-05T04:21:23.906Z,15.499640230018212
2022-10-05T04:24:24.018Z,15.485509322484086
2022-10-05T04:27:21.176Z,15.448255122262434
2022-10-05T04:31:32.951Z,15.475232300205334
2022-10-05T04:34:38.878Z,15.433481909169132
2022-10-05T04:37:23.133Z,15.427701087309197
2022-10-05T04:41:32.113Z,15.404577803552911
2022-10-05T04:44:32.256Z,15.385308404924672
2022-10-05T04:47:33.423Z,15.366681323474404
2022-10-05T04:51:27.375Z,15.379527586134282
2022-10-05T04:54:29.876Z,15.338419552025517
2022-10-05T04:57:23.789Z,15.335207987645209
2022-10-05T05:01:33.296Z,15.36154281891977
2022-10-05T05:04:34.771Z,15.317865541956053
2022-10-05T05:07:32.619Z,15.308230851338976
2022-10-05T05:11:26.188Z,15.293457661046705
2022-10-05T05:14:38.317Z,15.227941802653731
2022-10-05T05:17:32.637Z,15.178483784029321
2022-10-05T05:21:29.063Z,15.188118460867553
2022-10-05T05:24:24.928Z,15.128383480964203
2022-10-05T05:27:35.306Z,15.141229709881827
2022-10-05T05:31:33.750Z,15.177841472276487
2022-10-05T05:34:34.226Z,15.141229709881827
2022-10-05T05:37:25.105Z,15.120675744486743
2022-10-05T05:41:23.863Z,15.177841472276487
2022-10-05T05:44:23.007Z,15.159856745043362
2022-10-05T05:47:21.483Z,15.115537253865568
2022-10-05T05:51:20.197Z,15.114894942558385
2022-10-05T05:54:26.886Z,15.089202493999982
2022-10-05T05:57:22.909Z,15.036532997201721
2022-10-05T06:01:32.877Z,15.001205912823298
2022-10-05T06:04:21.978Z,15.000563602325565
2022-10-05T06:07:28.063Z,14.971659634634216
2022-10-05T06:11:20.994Z,15.000563602325565
2022-10-05T06:14:27.465Z,14.974228875833887
2022-10-05T06:17:21.067Z,14.972944255224956
2022-10-05T06:21:23.485Z,14.976155806781389
2022-10-05T06:24:21.392Z,14.972301944927313
2022-10-05T06:27:24.289Z,15.001205912823298
2022-10-05T06:31:32.232Z,15.026898336461546
2022-10-05T06:34:39.877Z,15.040386861784281
2022-10-05T06:37:33.245Z,15.06222543084441
2022-10-05T06:41:25.748Z,15.118106499139776
2022-10-05T06:44:25.583Z,15.148295136561865
2022-10-05T06:47:28.133Z,15.178483784029321
2022-10-05T06:51:25.872Z,15.272261348742267
2022-10-05T06:54:32.359Z,15.328142546408708
2022-10-05T06:57:42.522Z,15.372462141446249
2022-10-05T07:01:26.052Z,15.503494114273144
2022-10-05T07:04:36.792Z,15.588921923958697
2022-10-05T07:07:23.026Z,15.682057597601034
2022-10-05T07:11:32.211Z,15.797674428929259
2022-10-05T07:14:29.674Z,15.864475331964877
2022-10-05T07:17:29.180Z,15.94283799244813
2022-10-05T07:21:26.823Z,16.053316612370054
2022-10-05T07:24:29.347Z,16.14966435584438
2022-10-05T07:27:20.156Z,16.225457985948832
2022-10-05T07:31:28.760Z,16.371906874334762
2022-10-05T07:34:31.299Z,16.456693180921956
2022-10-05T07:38:30.254Z,16.563318497137608
2022-10-05T07:41:24.857Z,16.660951426708287
2022-10-05T07:44:24.160Z,16.76372304502447
2022-10-05T07:47:26.969Z,16.833093953198933
2022-10-05T07:51:24.365Z,16.957062467487777
2022-10-05T07:54:21.325Z,17.032856772100786
2022-10-05T07:57:23.211Z,17.09773160854538
2022-10-05T08:01:24.759Z,17.246108884098067
2022-10-05T08:04:23.310Z,17.356589091033676
2022-10-05T08:07:28.530Z,17.426602780187476
2022-10-05T08:11:21.118Z,17.54414882017445
2022-10-05T08:14:27.630Z,17.638571159315415
2022-10-05T08:17:25.697Z,17.715008362973823
2022-10-05T08:21:22.134Z,17.799795924718275
2022-10-05T08:24:33.272Z,17.874306271662135
2022-10-05T08:27:22.818Z,17.986071906810686
2022-10-05T08:31:21.986Z,18.084991032080506
2022-10-05T08:34:26.131Z,18.164640276262435
2022-10-05T08:37:21.649Z,18.255209259846833
2022-10-05T08:42:02.148Z,18.370829370267256
2022-10-05T09:01:30.303Z,19.255970430470278
2022-10-05T09:04:32.043Z,19.369664791881586
2022-10-05T09:07:36.633Z,19.492352087458222
2022-10-05T09:11:24.040Z,19.649726086444936
2022-10-05T09:14:30.402Z,19.735157800204707
2022-10-05T09:17:29.121Z,19.877758283568348
2022-10-05T09:21:30.365Z,20.05376099096402
2022-10-05T09:24:26.390Z,20.18993850248671
2022-10-05T09:27:18.814Z,20.37621939171231
2022-10-05T09:31:51.739Z,20.581128811581586
2022-10-05T09:35:03.781Z,20.725015326544234
2022-10-05T09:37:37.580Z,20.902946734250236
2022-10-05T09:41:36.588Z,21.200998682714363
2022-10-05T09:44:41.201Z,21.368010978396434
2022-10-05T09:52:45.594Z,21.85106365627589
2022-10-05T09:55:28.767Z,22.114431226139367
2022-10-05T09:57:49.314Z,22.217209021743564
2022-10-05T10:01:33.603Z,22.469015112974102
2022-10-05T10:04:26.562Z,22.70925933099652
2022-10-05T10:07:30.759Z,22.981622529307877
2022-10-05T10:11:28.299Z,23.214159680477405
2022-10-05T10:14:39.047Z,23.468538020060898
2022-10-05T10:17:35.949Z,23.60472065654985
2022-10-05T10:21:47.700Z,23.96766122839326
2022-10-05T10:24:30.864Z,24.171936383386857
2022-10-05T10:27:35.299Z,24.272789381045094
2022-10-05T10:31:41.630Z,24.573421911744028
2022-10-05T10:36:03.027Z,24.73401662046681
2022-10-05T10:37:35.993Z,25.029511627119156
2022-10-05T10:51:23.896Z,25.58067662381227
2022-10-05T10:55:26.317Z,25.868465737969473
2022-10-05T10:57:24.650Z,25.894161238973993
2022-10-05T11:01:32.020Z,26.174242671805494
2022-10-05T11:04:32.901Z,26.261607699292018
2022-10-05T11:07:49.308Z,26.48130541952569
2022-10-05T11:11:32.286Z,26.575094666770838
2022-10-05T11:14:53.399Z,26.810852997171242
2022-10-05T11:17:56.387Z,26.930338379420572
2022-10-05T11:21:25.289Z,27.1012155973036
2022-10-05T11:24:41.459Z,27.30549780635629
2022-10-05T11:27:49.144Z,27.126269051031795
2022-10-05T11:31:38.551Z,27.225840538066404
2022-10-05T11:51:29.646Z,28.276165781540566
2022-10-05T11:55:14.300Z,28.36032080719051
2022-10-05T11:57:22.799Z,28.461820865614573
2022-10-05T12:01:29.335Z,28.49908040921764
2022-10-05T12:04:27.729Z,28.57102991601896
2022-10-05T12:07:29.624Z,28.54212162518097
2022-10-05T12:11:41.590Z,28.722637992087765
2022-10-05T12:14:27.042Z,28.765036906138995
2022-10-05T12:17:25.682Z,28.770176169794286
2022-10-05T12:21:28.094Z,28.750903932587608
2022-10-05T12:24:26.999Z,28.800369349646736
2022-10-05T12:27:22.269Z,28.908293989544564
2022-10-05T12:31:29.820Z,29.032279002130963
2022-10-05T12:34:34.765Z,29.185815081491548
2022-10-05T12:37:42.635Z,29.199948122773
2022-10-05T12:41:21.742Z,29.154336952002268
2022-10-05T12:44:24.585Z,29.189027136134975
2022-10-05T12:47:26.538Z,29.29438259145827
2022-10-05T12:51:21.575Z,29.297594649944312
2022-10-05T12:54:24.454Z,29.26740130466387
2022-10-05T12:57:25.893Z,29.238492792000123
2022-10-05T13:01:27.790Z,29.23656555814996
2022-10-05T13:04:30.412Z,29.33356971275507
2022-10-05T13:07:48.139Z,29.553917283647753
2022-10-05T13:11:25.643Z,29.496100084993305
2022-10-05T13:14:35.845Z,29.56355348700463
2022-10-05T13:17:29.963Z,29.67276386322492
2022-10-05T13:21:20.613Z,29.485821475755436
2022-10-05T13:24:22.112Z,29.55006280259149
2022-10-05T13:27:22.724Z,29.55712935131969
2022-10-05T13:31:26.114Z,29.635503837744274
2022-10-05T13:34:27.193Z,29.63357659546309
2022-10-05T13:37:26.862Z,29.691393881701877
2022-10-05T13:41:27.470Z,29.698460441434964
2022-10-05T13:44:31.127Z,29.625225212717577
2022-10-05T13:47:28.685Z,29.67597593510327
2022-10-05T13:51:22.869Z,29.534644880003544
2022-10-05T13:54:26.976Z,29.559699005539095
2022-10-05T13:57:38.540Z,29.545565908232767
2022-10-05T14:01:39.409Z,29.604025552276653
2022-10-05T14:04:23.350Z,29.605952793930282
2022-10-05T14:07:29.281Z,29.69332112521088
2022-10-05T14:11:23.951Z,29.591177275631708
2022-10-05T14:14:24.363Z,29.638073494182844
2022-10-05T14:17:36.579Z,29.582825896787927
2022-10-05T14:21:20.448Z,29.710666318633592
2022-10-05T14:27:23.101Z,29.638073494182844
2022-10-05T14:31:27.998Z,29.739574981705026
2022-10-05T14:34:34.551Z,29.687539394806663
2022-10-05T14:37:20.581Z,29.69267871070333
2022-10-05T14:41:18.967Z,29.57447451871267
2022-10-05T14:44:28.326Z,29.534644880003544
2022-10-05T14:47:21.692Z,29.51986937331467
2022-10-05T14:51:26.151Z,29.481324584579944
2022-10-05T14:54:26.321Z,29.49417284567253
2022-10-05T14:57:26.774Z,29.45627048068127
2022-10-05T15:01:25.289Z,29.381750622787514
2022-10-05T15:04:33.016Z,29.391386807863547
2022-10-05T15:07:24.092Z,29.268686127662658
2022-10-05T15:11:29.188Z,29.2320686793254
2022-10-05T15:14:21.767Z,29.221147688822022
2022-10-05T15:17:20.031Z,29.226286978306963
2022-10-05T15:21:35.408Z,29.092665546285936
2022-10-05T15:24:21.508Z,29.107440983421203
2022-10-05T15:27:24.288Z,29.050908889126823
2022-10-05T15:31:29.282Z,28.946196125675122
2022-10-05T15:34:24.904Z,28.827350497588576
2022-10-05T15:37:25.093Z,28.842768300014086
2022-10-05T15:41:22.866Z,28.76310968234329
2022-10-05T15:44:28.818Z,28.704650579989902
2022-10-05T15:47:22.401Z,28.64297947986379
2022-10-05T15:51:27.643Z,28.554327346856006
2022-10-05T15:55:57.306Z,28.49265634888434
2022-10-05T15:57:24.498Z,28.433555015154706
2022-10-05T16:01:22.591Z,28.27166895030532
2022-10-05T16:04:25.080Z,28.214494972598278
2022-10-05T16:11:29.047Z,28.012137925125717
2022-10-05T16:14:33.710Z,27.926698418337857
2022-10-05T16:17:30.859Z,27.774449271039703
2022-10-05T16:21:26.170Z,27.695433991477422
2022-10-05T16:24:38.783Z,27.575947601844472
2022-10-05T16:27:29.483Z,27.441043802633157
2022-10-05T16:31:25.838Z,27.150680115163503
2022-10-05T16:34:31.439Z,27.15260730471673
2022-10-05T16:37:26.023Z,26.986226757379427
2022-10-05T16:41:27.658Z,26.770382177561352
2022-10-05T16:44:27.539Z,26.548114188453564
2022-10-05T16:48:00.321Z,26.374668447953535
2022-10-05T16:51:29.070Z,26.1151428479644
2022-10-05T16:54:22.398Z,26.02328124166379
2022-10-05T16:57:21.718Z,25.96289673992469
2022-10-05T17:01:33.082Z,25.76375664661173
2022-10-05T17:04:31.410Z,25.810008500289406
2022-10-05T17:07:37.972Z,25.655193360447537
2022-10-05T17:11:32.057Z,25.45155725089753
2022-10-05T17:14:30.941Z,25.34299433823553
2022-10-05T17:17:47.804Z,25.23443155545392
2022-10-05T17:21:24.812Z,25.107882203371354
2022-10-05T17:24:35.510Z,24.925445884574675
2022-10-05T17:27:28.037Z,24.865062113369003
2022-10-05T17:31:20.279Z,24.748148968440454
2022-10-05T17:34:30.222Z,24.497621307961616
2022-10-05T17:37:32.077Z,24.434668312272787
2022-10-05T17:41:22.778Z,24.386490028747357
2022-10-05T17:44:24.179Z,24.28820640967251
2022-10-05T17:47:54.288Z,24.113480238605643
2022-10-05T18:01:25.467Z,23.715850978334494
2022-10-05T18:04:28.140Z,23.549476732203857
2022-10-05T18:07:20.797Z,23.409439958383974
2022-10-05T18:11:37.221Z,23.374109613808105
2022-10-05T18:14:20.867Z,23.22572231680615
2022-10-05T18:17:36.087Z,23.076692894788813
2022-10-05T18:21:37.776Z,22.896830125213548
2022-10-05T18:25:18.484Z,22.87948623413722
2022-10-05T18:27:37.693Z,22.825527483100085
2022-10-05T18:31:30.358Z,22.66493615201325
2022-10-05T18:34:29.899Z,22.532609108783436
2022-10-05T18:37:30.159Z,22.44139349231409
2022-10-05T18:41:27.028Z,22.39578571846514
2022-10-05T18:44:30.859Z,22.295577169117404
2022-10-05T18:47:26.140Z,22.15746941388097
2022-10-05T18:51:23.790Z,22.005872305954473
2022-10-05T18:54:32.575Z,21.912730140680015
2022-10-05T18:58:25.449Z,21.85363309228933
2022-10-05T19:01:39.474Z,21.73286967831091
2022-10-05T19:04:26.771Z,21.64936315625828
2022-10-05T19:07:28.351Z,21.600543994348207
2022-10-05T19:11:24.601Z,21.451517241515923
2022-10-05T19:14:26.818Z,21.372507467529793
2022-10-05T19:17:25.016Z,21.337177916056042
2022-10-05T19:21:28.019Z,21.202283391507898
2022-10-05T19:24:42.861Z,21.179158636007287
2022-10-05T19:27:26.117Z,21.015358453267254
2022-10-05T19:31:28.698Z,20.96461257429555
2022-10-05T19:34:32.385Z,20.843850343533358
2022-10-05T19:37:26.001Z,20.851558566226686
2022-10-05T19:41:20.919Z,20.647290886106294
2022-10-05T19:44:30.470Z,20.667846103548165
2022-10-05T19:47:38.878Z,20.62223922114499
2022-10-05T19:51:27.860Z,20.47706817062026
2022-10-05T19:54:22.426Z,20.393562804308022
2022-10-05T19:57:18.227Z,20.33253970060405
2022-10-05T20:01:24.572Z,20.267662551150714
2022-10-05T20:04:32.514Z,20.240683948202424
2022-10-05T20:07:18.929Z,20.204712490082965
2022-10-05T20:11:17.744Z,20.102579320650058
2022-10-05T20:14:20.038Z,20.05311864469586
2022-10-05T20:21:49.929Z,19.941992808748275
2022-10-05T20:24:18.781Z,19.915656647924333
2022-10-05T20:27:35.581Z,19.846283382830734
2022-10-05T20:31:20.661Z,19.813523803863156
2022-10-05T20:34:18.406Z,19.714602794056646
2022-10-05T20:37:18.755Z,19.69661716749697
2022-10-05T20:41:16.805Z,19.568790852873644
2022-10-05T20:44:18.313Z,19.60476205888117
2022-10-05T20:47:17.554Z,19.536673716703444
2022-10-05T20:51:17.219Z,19.49427911436651
2022-10-05T20:54:19.961Z,19.419125095270374
2022-10-05T20:57:16.431Z,19.392789086213817
2022-10-05T21:01:19.721Z,19.3568179642436
2022-10-05T21:04:19.812Z,19.248904683898218
2022-10-05T21:07:18.420Z,19.177604908371087
2022-10-05T21:11:17.494Z,19.169254487875513
2022-10-05T21:14:17.796Z,19.123648358729497
2022-10-05T21:17:16.961Z,19.061983769857854
2022-10-05T21:21:18.295Z,19.01958938931939
2022-10-05T21:24:18.803Z,18.991326479965302
2022-10-05T21:27:17.034Z,18.978479705896554
2022-10-05T21:31:16.294Z,18.941224071383566
2022-10-05T21:34:17.737Z,18.87827493058803
2022-10-05T21:37:20.421Z,18.88084428241864
2022-10-05T21:41:17.522Z,18.80633310887142
2022-10-05T21:44:17.247Z,18.77871260318825
2022-10-05T21:47:16.968Z,18.77614325424984
2022-10-05T21:51:18.236Z,18.73567601806726
2022-10-05T21:54:20.457Z,18.7048438502331
2022-10-05T21:57:17.203Z,18.618770770481298
2022-10-05T22:01:21.490Z,18.66694599162438
